x

Point Arguello, Ca (ptgc1) Weather Station

3:00am - Sun 25th Sep 2016 All times are PDT. -7 hours from GMT.

  • Wind
    9mph, 10mph gusts
  • Air Temp 62°f
  • Sea Pressure 1014.6mb
  • Point Arguello, Ca
  • Point Arguello, Ca

More Historic Weather Station data

Upgrade to MSW Pro to gain access to the past 30 days of data for over 8000 Wavebouys and Weather Stations around the globe.

Join Pro

Comparision Forecast

View Surf forecast
   
Sun 09/25 3:00am 9 10 mph 1014.6mb 62f
2:00am 7
mph
1015mb 64f
1:00am 14 15 mph 1015.2mb 58f
12:00am 15 17 mph 1015.5mb 58f
Sat 09/24 11:00pm 20 21 mph 1015.3mb 60f
10:00pm 18 20 mph 1015.6mb 61f
9:00pm 20
mph
1015.7mb 61f
8:00pm 17 20 mph 1015.5mb 64f
7:00pm 22 24 mph 1015.3mb 69f
6:00pm 20 22 mph 1015.5mb 66f
5:00pm 20 22 mph 1015.8mb 64f
4:00pm 22 26 mph 1016.2mb 62f
3:00pm 17 20 mph 1016.1mb 66f
2:00pm 15 16 mph 1016.8mb 66f
1:00pm 15 17 mph 1017.1mb 66f
12:00pm 16 17 mph 1017.3mb 65f
11:00am 14 15 mph 1017.5mb 62f
10:00am 23 24 mph 1017mb 63f
9:00am 23 24 mph 1016.9mb 63f
8:00am 16 18 mph 1017.1mb 61f
7:00am 11 13 mph 1017mb 62f
6:00am 11 15 mph 1016.7mb 61f
5:00am 15 18 mph 1016.5mb 59f
4:00am 14 21 mph 1016.6mb 59f
3:00am 20 22 mph 1016.7mb 58f
2:00am 20 22 mph 1017.1mb 57f
1:00am 22 24 mph 1016.9mb 58f
12:00am 20 21 mph 1016.9mb 57f
Fri 09/23 11:00pm 17 18 mph 1017.4mb 57f
10:00pm 10 11 mph 1017.6mb 57f
9:00pm 11 14 mph 1018mb 58f
8:00pm 20 22 mph 1017.5mb 58f
7:00pm 22 24 mph 1017.4mb 58f
6:00pm 24 25 mph 1017.4mb 58f
5:00pm 21 23 mph 1017.9mb 59f
4:00pm 15 17 mph 1018.3mb 60f
3:00pm 17 21 mph 1018.3mb 58f
2:00pm 17 18 mph 1018.8mb 58f
1:00pm 11 14 mph 1019.4mb 58f
12:00pm 13 14 mph 1019.8mb 57f
11:00am 10 11 mph 1019.9mb 56f
10:00am 16 17 mph 1019.9mb 56f
9:00am 14 15 mph 1019.3mb 56f
8:00am 15 16 mph 1018.9mb 56f
7:00am 18 21 mph 1018.2mb 56f
6:00am 17 21 mph 1017.9mb 56f
5:00am 17 18 mph 1017.8mb 56f
4:00am 17 18 mph 1017.5mb 56f
3:00am 20 22 mph 1017.6mb 56f
2:00am 13 16 mph 1017.8mb 56f
1:00am 13 16 mph 1017.7mb 56f
12:00am 9 10 mph 1017.8mb 56f
Thu 09/22 11:00pm 18 20 mph 1017.2mb 57f
10:00pm 17 21 mph 1017mb 57f
9:00pm 20 24 mph 1016.8mb 58f
8:00pm 30 33 mph 1015.7mb 58f
7:00pm 28 32 mph 1015.3mb 58f
6:00pm 33 38 mph 1015.4mb 58f
5:00pm 33 39 mph 1015.5mb 58f
4:00pm 33 37 mph 1015.9mb 59f
3:00pm 37 43 mph 1016.1mb 59f
2:00pm 36 40 mph 1016.4mb 58f
1:00pm 38 41 mph 1017mb 58f
12:00pm 36 40 mph 1017mb 58f
11:00am 31 34 mph 1017.3mb 58f
10:00am 34 38 mph 1016.8mb 58f
9:00am 33 36 mph 1016.2mb 57f
8:00am 34 38 mph 1015.8mb 58f
7:00am 32 36 mph 1015.4mb 58f
6:00am 36 39 mph 1014.8mb 58f
5:00am 40 44 mph 1013.8mb 58f
4:00am 32 34 mph 1013.7mb 58f
3:00am 37 41 mph 1013.6mb 58f
2:00am 38 44 mph 1013.1mb 58f
1:00am 36 40 mph 1013.3mb 59f
12:00am 36 39 mph 1013.2mb 59f
Wed 09/21 11:00pm 30 32 mph 1013.4mb 59f
10:00pm 28 31 mph 1013.3mb 60f
9:00pm 28 30 mph 1013.1mb 60f
8:00pm 30 32 mph 1012.9mb 60f
7:00pm 29 31 mph 1013mb 60f
6:00pm 29 31 mph 1013mb 60f
5:00pm 28 30 mph 1012.9mb 60f
4:00pm 28 30 mph 1013.1mb 60f
3:00pm 29 30 mph 1013.2mb 60f
2:00pm 26 28 mph 1013.5mb 60f
1:00pm 24 25 mph 1013.9mb 60f
12:00pm 24 26 mph 1014.4mb 58f